Time;durP1;ratioP1;P1;durP2;ratioP2;P2;SDS_P1;SDS_P2;PMS_P1;PMS_P2;Temp;Humidity;BMP_temperature;BMP_pressure;BME280_temperature;BME280_humidity;BME280_pressure;Samples;Min_cycle;Max_cycle;Signal;HPM_P1;HPM_P2
2024/02/09 16:44:25;;;;;;;28.30;18.42;;;;;;;;;;5088748;23;20071;-95
2024/02/09 16:46:51;;;;;;;21.42;12.80;;;;;;;;;;4952036;29;20035;-94
2024/02/09 16:49:17;;;;;;;18.77;11.65;;;;;;;;;;4940639;29;20028;-91
2024/02/09 16:51:42;;;;;;;20.35;12.95;;;;;;;;;;4940859;29;20122;-96
2024/02/09 16:54:08;;;;;;;18.65;11.68;;;;;;;;;;4926517;29;20048;-93
2024/02/09 16:56:33;;;;;;;18.73;11.48;;;;;;;;;;4943475;29;20036;-94
2024/02/09 16:58:59;;;;;;;17.15;9.95;;;;;;;;;;4939750;29;20028;-91
2024/02/09 17:01:27;;;;;;;15.07;9.45;;;;;;;;;;4939456;29;20519;-93
2024/02/09 17:03:53;;;;;;;12.85;9.35;;;;;;;;;;4938734;29;20038;-94
2024/02/09 17:09:30;;;;;;;15.45;10.38;;;;;;;;;;5482830;23;20083;-88
2024/02/09 17:11:59;;;;;;;15.38;11.15;;;;;;;;;;4929268;29;20039;-92
2024/02/09 17:14:25;;;;;;;17.40;11.35;;;;;;;;;;4931338;29;20031;-90
2024/02/09 17:16:58;;;;;;;15.95;10.60;;;;;;;;;;4930074;29;20028;-90
2024/02/09 17:19:28;;;;;;;22.88;14.60;;;;;;;;;;4922434;29;20034;-91
2024/02/09 17:21:55;;;;;;;16.08;11.18;;;;;;;;;;4923474;29;20143;-93
2024/02/09 17:24:20;;;;;;;14.43;10.60;;;;;;;;;;4922967;29;20389;-92
2024/02/09 17:26:47;;;;;;;21.42;14.73;;;;;;;;;;4922036;29;20106;-91
2024/02/09 17:29:23;;;;;;;22.40;14.35;;;;;;;;;;4922021;29;20478;-89
2024/02/09 17:31:49;;;;;;;18.98;12.88;;;;;;;;;;4907711;29;20032;-92
2024/02/09 17:34:14;;;;;;;15.75;10.18;;;;;;;;;;4921973;29;20032;-91
2024/02/09 17:36:42;;;;;;;13.52;9.77;;;;;;;;;;4922273;29;20028;-90
2024/02/09 17:39:08;;;;;;;25.92;16.85;;;;;;;;;;4921816;29;20027;-93
2024/02/09 17:41:34;;;;;;;20.52;13.93;;;;;;;;;;4922153;29;20065;-91
2024/02/09 17:44:00;;;;;;;18.55;12.07;;;;;;;;;;4921827;29;20032;-90
2024/02/09 17:46:26;;;;;;;17.17;10.65;;;;;;;;;;4922648;29;20035;-92
2024/02/09 17:48:51;;;;;;;31.77;17.45;;;;;;;;;;4922318;29;20075;-89
2024/02/09 17:51:17;;;;;;;30.98;17.70;;;;;;;;;;4924219;29;20032;-90
2024/02/09 17:53:43;;;;;;;11.05;8.40;;;;;;;;;;4923307;29;20027;-90
2024/02/09 17:56:14;;;;;;;11.00;8.27;;;;;;;;;;4921945;29;20051;-90
2024/02/09 17:58:39;;;;;;;13.93;9.75;;;;;;;;;;4922044;29;20533;-89
2024/02/09 18:01:05;;;;;;;20.77;15.18;;;;;;;;;;4921597;29;20028;-91
2024/02/09 18:03:30;;;;;;;20.90;13.68;;;;;;;;;;4921569;29;20036;-90
2024/02/09 18:05:56;;;;;;;17.50;10.95;;;;;;;;;;4921203;29;20183;-91
2024/02/09 18:08:21;;;;;;;12.50;9.05;;;;;;;;;;4938120;29;20035;-89
2024/02/09 18:10:47;;;;;;;14.52;8.95;;;;;;;;;;4921004;29;20479;-89
2024/02/09 18:13:13;;;;;;;12.32;8.10;;;;;;;;;;4921016;29;20090;-90
2024/02/09 18:15:39;;;;;;;10.07;7.68;;;;;;;;;;4921146;29;20052;-90
2024/02/09 18:18:05;;;;;;;11.02;7.72;;;;;;;;;;4921408;29;20422;-89
2024/02/09 18:20:32;;;;;;;8.57;6.47;;;;;;;;;;4920886;29;20454;-90
2024/02/09 18:22:58;;;;;;;13.35;7.65;;;;;;;;;;4921041;29;20027;-90
2024/02/09 18:25:24;;;;;;;8.73;6.93;;;;;;;;;;4921144;29;20483;-89
2024/02/09 18:27:50;;;;;;;10.35;7.05;;;;;;;;;;4921343;29;20035;-89
2024/02/09 18:30:18;;;;;;;8.43;5.53;;;;;;;;;;4920592;29;20100;-89
2024/02/09 18:32:50;;;;;;;8.30;5.63;;;;;;;;;;4921070;29;20041;-89
2024/02/09 18:35:18;;;;;;;8.52;5.38;;;;;;;;;;4921154;29;20024;-89
2024/02/09 18:37:46;;;;;;;6.28;4.20;;;;;;;;;;4937823;29;20027;-89
2024/02/09 18:40:13;;;;;;;5.63;4.30;;;;;;;;;;4920662;29;20031;-89
2024/02/09 18:42:39;;;;;;;7.28;5.22;;;;;;;;;;4905167;29;20461;-89
2024/02/09 18:45:08;;;;;;;10.30;5.70;;;;;;;;;;4920569;29;20167;-89
2024/02/09 18:47:34;;;;;;;7.35;4.32;;;;;;;;;;4920994;29;20048;-88
2024/02/09 18:50:00;;;;;;;5.78;3.90;;;;;;;;;;4920528;29;20039;-89
2024/02/09 18:52:26;;;;;;;7.20;5.03;;;;;;;;;;4920539;29;20030;-89
2024/02/09 18:54:52;;;;;;;7.43;5.22;;;;;;;;;;4920445;29;20023;-89
2024/02/09 18:57:18;;;;;;;7.88;4.47;;;;;;;;;;4920417;29;20024;-88
2024/02/09 18:59:45;;;;;;;5.88;3.85;;;;;;;;;;4920873;29;20134;-92
2024/02/09 19:02:10;;;;;;;6.07;3.03;;;;;;;;;;4920621;29;20087;-91
2024/02/09 19:04:36;;;;;;;3.50;2.88;;;;;;;;;;4920405;29;20032;-90
2024/02/09 19:07:01;;;;;;;3.70;2.53;;;;;;;;;;4920528;29;20032;-88
2024/02/09 19:09:27;;;;;;;3.90;3.10;;;;;;;;;;4904777;29;20048;-89
2024/02/09 19:11:53;;;;;;;4.05;3.65;;;;;;;;;;4920086;29;20095;-89
2024/02/09 19:14:19;;;;;;;4.78;3.58;;;;;;;;;;4937230;29;20035;-89
2024/02/09 19:16:47;;;;;;;4.75;3.50;;;;;;;;;;4938450;29;20027;-90
2024/02/09 19:19:13;;;;;;;4.50;3.92;;;;;;;;;;4939079;29;20162;-90
2024/02/09 19:21:38;;;;;;;6.53;5.25;;;;;;;;;;4938947;29;20050;-90
2024/02/09 19:24:05;;;;;;;7.57;4.80;;;;;;;;;;4939113;28;20466;-91
2024/02/09 19:26:33;;;;;;;5.00;3.65;;;;;;;;;;4923472;28;20039;-93
2024/02/09 19:28:59;;;;;;;4.57;3.28;;;;;;;;;;4939329;29;20039;-93
2024/02/09 19:31:29;;;;;;;6.45;4.32;;;;;;;;;;4956358;28;20027;-92
2024/02/09 19:33:57;;;;;;;8.80;7.75;;;;;;;;;;4940180;29;20035;-94
2024/02/09 19:36:23;;;;;;;8.20;6.28;;;;;;;;;;4939370;29;20027;-89
2024/02/09 19:38:49;;;;;;;12.75;7.63;;;;;;;;;;4956041;28;20074;-90
2024/02/09 19:41:18;;;;;;;10.40;6.57;;;;;;;;;;4955987;28;20434;-89
2024/02/09 19:43:44;;;;;;;7.88;4.53;;;;;;;;;;4927594;29;20556;-90
2024/02/09 19:46:10;;;;;;;3.35;2.63;;;;;;;;;;4962517;29;20114;-91
2024/02/09 19:48:36;;;;;;;2.13;1.88;;;;;;;;;;4951936;29;20027;-89
2024/02/09 19:51:07;;;;;;;4.22;2.13;;;;;;;;;;4947715;29;20039;-91
2024/02/09 19:53:34;;;;;;;3.17;2.30;;;;;;;;;;4949438;29;20027;-96
2024/02/09 19:56:02;;;;;;;3.58;2.50;;;;;;;;;;4949358;29;20054;-92
2024/02/09 19:58:28;;;;;;;5.13;3.00;;;;;;;;;;4963823;28;20114;-91
2024/02/09 20:00:54;;;;;;;4.20;2.67;;;;;;;;;;4949188;29;20063;-91
2024/02/09 20:03:20;;;;;;;3.28;2.45;;;;;;;;;;4945255;29;20078;-88
2024/02/09 20:05:49;;;;;;;2.20;2.10;;;;;;;;;;4942448;28;20434;-90
2024/02/09 20:08:17;;;;;;;3.50;2.20;;;;;;;;;;4960776;29;20027;-89
2024/02/09 20:10:46;;;;;;;2.42;2.15;;;;;;;;;;4942652;29;20066;-92
2024/02/09 20:13:13;;;;;;;3.00;1.90;;;;;;;;;;4959926;29;20031;-93
2024/02/09 20:15:43;;;;;;;1.70;1.60;;;;;;;;;;4942650;29;20027;-92
2024/02/09 20:18:08;;;;;;;16.73;11.40;;;;;;;;;;4927070;29;20054;-93
2024/02/09 20:20:35;;;;;;;9.48;6.68;;;;;;;;;;4942702;29;20356;-89
2024/02/09 20:23:04;;;;;;;2.50;1.90;;;;;;;;;;4958893;28;20373;-90
2024/02/09 20:25:34;;;;;;;1.98;1.77;;;;;;;;;;4941644;29;20126;-89
2024/02/09 20:28:00;;;;;;;10.93;6.75;;;;;;;;;;4959212;29;20055;-91
2024/02/09 20:30:26;;;;;;;4.28;3.65;;;;;;;;;;4941865;29;20035;-91
2024/02/09 20:32:54;;;;;;;3.30;2.40;;;;;;;;;;4942005;28;20118;-88
2024/02/09 20:35:20;;;;;;;2.70;1.80;;;;;;;;;;4941588;29;20035;-87
2024/02/09 20:37:50;;;;;;;3.70;2.20;;;;;;;;;;4958874;28;20119;-92
2024/02/09 20:40:19;;;;;;;2.53;2.05;;;;;;;;;;4941463;29;20541;-89
2024/02/09 20:42:44;;;;;;;4.72;2.30;;;;;;;;;;4958870;28;20535;-88
2024/02/09 20:45:13;;;;;;;2.03;1.70;;;;;;;;;;4941621;29;20031;-92
2024/02/09 20:47:47;;;;;;;4.82;2.25;;;;;;;;;;4959000;29;20023;-89
2024/02/09 20:50:17;;;;;;;2.92;2.17;;;;;;;;;;4941339;29;20027;-92
2024/02/09 20:52:47;;;;;;;2.67;2.20;;;;;;;;;;4958752;28;20024;-89
2024/02/09 20:55:19;;;;;;;5.45;3.88;;;;;;;;;;4958959;29;20023;-88
2024/02/09 20:57:46;;;;;;;7.05;5.80;;;;;;;;;;4941492;29;20092;-89
2024/02/09 21:00:19;;;;;;;6.00;4.30;;;;;;;;;;4941506;28;20027;-89
2024/02/09 21:02:46;;;;;;;5.25;4.30;;;;;;;;;;4940640;29;20039;-88
2024/02/09 21:05:19;;;;;;;5.65;4.15;;;;;;;;;;4940981;29;20035;-90
2024/02/09 21:07:46;;;;;;;3.55;3.03;;;;;;;;;;4958580;28;20031;-88
2024/02/09 21:10:13;;;;;;;4.20;2.65;;;;;;;;;;4941046;29;20054;-95
2024/02/09 21:12:49;;;;;;;4.25;2.40;;;;;;;;;;4959015;28;20055;-91
2024/02/09 21:15:18;;;;;;;3.17;2.88;;;;;;;;;;4941648;29;20027;-89
2024/02/09 21:17:48;;;;;;;4.30;3.05;;;;;;;;;;4941887;29;20055;-88
2024/02/09 21:20:16;;;;;;;3.85;3.35;;;;;;;;;;4941102;29;20430;-92
2024/02/09 21:22:42;;;;;;;4.75;2.72;;;;;;;;;;4958397;29;20062;-91
2024/02/09 21:25:10;;;;;;;4.35;2.60;;;;;;;;;;4958352;29;20035;-88
2024/02/09 21:27:36;;;;;;;5.18;2.13;;;;;;;;;;4958677;28;20035;-94
2024/02/09 21:30:07;;;;;;;2.33;2.10;;;;;;;;;;4940779;29;20059;-95
2024/02/09 21:32:35;;;;;;;3.35;1.80;;;;;;;;;;4942638;29;20121;-95
2024/02/09 21:35:02;;;;;;;2.80;2.00;;;;;;;;;;4941169;29;20035;-94
2024/02/09 21:37:31;;;;;;;;;;;;;;;;;;4958690;28;20114;-90
2024/02/09 21:39:56;;;;;;;;;;;;;;;;;;4942001;29;19921;-91
2024/02/09 21:42:26;;;;;;;;;;;;;;;;;;4941328;29;19910;-91
2024/02/09 21:44:52;;;;;;;;;;;;;;;;;;4962577;29;19918;-92
2024/02/09 21:47:20;;;;;;;;;;;;;;;;;;4972754;29;19977;-89
2024/02/09 21:49:45;;;;;;;;;;;;;;;;;;4945889;29;19962;-93
2024/02/09 21:52:13;;;;;;;;;;;;;;;;;;4943038;29;19914;-86
2024/02/09 21:54:39;;;;;;;;;;;;;;;;;;4944586;29;19996;-91
2024/02/09 21:57:05;;;;;;;;;;;;;;;;;;4941347;29;19946;-94
2024/02/09 21:59:35;;;;;;;;;;;;;;;;;;4942066;29;19914;-93
2024/02/09 22:02:00;;;;;;;;;;;;;;;;;;4941207;29;19918;-90
2024/02/09 22:04:25;;;;;;;;;;;;;;;;;;4940187;29;20396;-92
2024/02/09 22:06:51;;;;;;;;;;;;;;;;;;4940574;29;19914;-91
2024/02/09 22:09:16;;;;;;;;;;;;;;;;;;4940484;29;20365;-87
2024/02/09 22:11:42;;;;;;;;;;;;;;;;;;4941103;29;19921;-91
2024/02/09 22:14:07;;;;;;;;;;;;;;;;;;4963130;29;19922;-87
2024/02/09 22:16:42;;;;;;;;;;;;;;;;;;4945706;29;20009;-87
2024/02/09 22:19:08;;;;;;;;;;;;;;;;;;4946010;28;19918;-86
2024/02/09 22:21:36;;;;;;;;;;;;;;;;;;4945386;29;19982;-86
2024/02/09 22:24:03;;;;;;;;;;;;;;;;;;4945812;29;19914;-87
2024/02/09 22:26:28;;;;;;;;;;;;;;;;;;4964121;28;19938;-85
2024/02/09 22:28:56;;;;;;;;;;;;;;;;;;4968831;28;20326;-87
2024/02/09 22:31:22;;;;;;;;;;;;;;;;;;4951056;29;19933;-88
2024/02/09 22:33:47;;;;;;;;;;;;;;;;;;4947071;29;19941;-86
2024/02/09 22:36:17;;;;;;;;;;;;;;;;;;4961829;29;20420;-87
2024/02/09 22:38:46;;;;;;;;;;;;;;;;;;4942712;29;19914;-87
2024/02/09 22:41:20;;;;;;;;;;;;;;;;;;4957219;28;19914;-86
2024/02/09 22:43:52;;;;;;;;;;;;;;;;;;4939768;29;19914;-86
2024/02/09 22:46:20;;;;;;;;;;;;;;;;;;4956778;29;19937;-86
2024/02/09 22:48:45;;;;;;;;;;;;;;;;;;4939602;29;19922;-86
2024/02/09 22:51:11;;;;;;;;;;;;;;;;;;4957115;29;19914;-86
2024/02/09 22:53:37;;;;;;;;;;;;;;;;;;4957147;28;19914;-87
2024/02/09 22:56:03;;;;;;;;;;;;;;;;;;4924094;29;19922;-87
2024/02/09 22:58:30;;;;;;;;;;;;;;;;;;4956824;28;19922;-87
2024/02/09 23:00:58;;;;;;;;;;;;;;;;;;4956699;28;19915;-85
2024/02/09 23:03:24;;;;;;;;;;;;;;;;;;4957316;29;19914;-86
2024/02/09 23:05:49;;;;;;;;;;;;;;;;;;4957593;29;20395;-93
2024/02/09 23:08:15;;;;;;;;;;;;;;;;;;4957122;29;19926;-87
2024/02/09 23:10:40;;;;;;;;;;;;;;;;;;4956556;28;19918;-89
2024/02/09 23:13:06;;;;;;;;;;;;;;;;;;4939582;29;20266;-87
2024/02/09 23:15:31;;;;;;;;;;;;;;;;;;4956894;28;20063;-93
2024/02/09 23:17:56;;;;;;;;;;;;;;;;;;4957125;28;19915;-87
2024/02/09 23:20:23;;;;;;;;;;;;;;;;;;4939816;29;20270;-91
2024/02/09 23:22:50;;;;;;;;;;;;;;;;;;4940265;29;19914;-92
2024/02/09 23:25:16;;;;;;;;;;;;;;;;;;4958048;28;20020;-88
2024/02/09 23:27:41;;;;;;;;;;;;;;;;;;4956491;28;20001;-87
2024/02/09 23:30:09;;;;;;;;;;;;;;;;;;4956719;29;20399;-88
2024/02/09 23:32:35;;;;;;;;;;;;;;;;;;4956676;29;19915;-91
